Wilder Trauco

Olheiro-Chefe - Universitario
26 Dez 2026
Sábado
Processo

Personalidade

Adaptabilidade (7) Ambição (1) Controvérsia (14) Lealdade (13) Pressão (5) Profissionalismo (5) Espírito Esportivo (2) Temperamento (16)

Perfil

Estilo de Treinamento Democrático
Licença Continental A
Determinação 5
Gestão de Pessoas 7
Motivação 10
Disciplina 4
Satisfação no Trabalho
50%
Fadiga
0%
Função Olheiro-Chefe
Salário 75.9K p/s
Contrato 14.03.2029

Desempenho

Comportamento Normal
Eficácia do Treinamento
24%
Desenvolvimento do Jogador
45%
Prevenção de Lesões
50%
Implementação Tática
40%

Eventos Recentes

Participou de uma reunião de recrutamento 7d atrás
Participou de uma reunião de recrutamento 7d atrás
Avaliou um jogador 7d atrás
Apresentou um dossiê à direção 7d atrás
Avaliou um jogador 7d atrás
Apresentou um dossiê à direção 7d atrás
Avaliou um jogador 14d atrás
Apresentou um dossiê à direção 14d atrás

Monitorando agora

116
Jogador Clube Status Habilidade Confiança Observado Última observação Último voto
Agustín Sández Rosario Central Ativo 135 / 113 40% 1 17.12.2026 -
Szabolcs Szoboszlai Haladas Perdido 127 / 142 40% 1 17.12.2026 -
Oussama Idrissi Ferencvaros Negociando 154 / 155 40% 1 15.12.2026 -
Esequiel Barco Spartak Moscow Ativo 137 / 151 40% 1 15.12.2026 -
Gonzalo Bordón Independiente Ativo 96 / 113 40% 1 09.12.2026 -
Nicolás Ortiz Leganés Ativo 111 / 111 40% 1 09.12.2026 -
Agustín Bustinduy Central Norte Ativo 88 / 110 40% 1 07.12.2026 -
Marcelo Camargo Vélez Ativo 95 / 112 40% 2 06.12.2026 -
Jonathan De Irastorza Levante Ativo 116 / 129 40% 1 06.12.2026 -
Juan Giménez Rosario Central Ativo 101 / 116 40% 1 05.12.2026 -
Demián Troya Platense Ativo 94 / 108 40% 1 05.12.2026 -
Facundo Infante Talleres Ativo 87 / 97 40% 1 04.12.2026 -
Marcos López Banfield Ativo 107 / 111 40% 1 04.12.2026 -
Luciano Barros Ayala Independiente Ativo 98 / 98 40% 1 03.12.2026 -
Sebastián Flores Rayo Vallecano Ativo 99 / 108 40% 1 03.12.2026 -
Mauro Carrizo Atlético Tucumán Ativo 102 / 104 40% 2 02.12.2026 -
Tobías Ramírez Sevilla Ativo 117 / 119 40% 1 02.12.2026 -
Ezequiel Moya Chacarita Juniors Ativo 91 / 102 40% 1 01.12.2026 -
Diego Pavia Barracas Central Ativo 99 / 99 40% 1 30.11.2026 Mais informações
Troy Parrott Betis Ativo 132 / 134 40% 4 29.11.2026 -
David Volk Dinamo Makhachkala Ativo 106 / 119 40% 1 29.11.2026 -
Patrick Schulte Columbus Crew Ativo 135 / 109 40% 1 29.11.2026 -
Brayan Gil Baltika Ativo 133 / 122 40% 1 29.11.2026 -
Marcelo Torres Gimnasia La Plata Ativo 133 / 122 40% 2 27.11.2026 -
Ammar Ramadan DAC Dunajska Streda Ativo 124 / 123 40% 2 27.11.2026 -
Martin Vantruba Spartak Trnava Ativo 128 / 90 40% 2 27.11.2026 -
Matt Freese New York City Ativo 150 / 111 40% 1 27.11.2026 -
Cristopher Varela Deportivo La Guaira Ativo 115 / 124 40% 5 25.11.2026 -
Jakub Stolarczyk Leicester City Ativo 138 / 142 40% 2 25.11.2026 -
Leopold Wahlstedt Rosenborg Ativo 118 / 132 40% 4 24.11.2026 -
Manuel Roffo Cerro Porteno Ativo 135 / 125 40% 1 24.11.2026 -
Álvaro Fernández Deportivo La Coruña Ativo 132 / 150 40% 4 23.11.2026 -
Jay Gorter Pafos Ativo 103 / 99 40% 1 23.11.2026 -
Williams Mahlangu SuperSport United Ativo 90 / 101 40% 3 21.11.2026 -
Ander Astralaga Barcelona Ativo 137 / 123 40% 6 20.11.2026 Observar
Frankarlos Benítez Caracas Ativo 95 / 113 40% 4 20.11.2026 -
Manu Nieto Andorra Ativo 120 / 101 40% 2 19.11.2026 -
Mateusz Kochalski Qarabag Ativo 135 / 126 40% 1 19.11.2026 -
Santiago Silva Boston River Ativo 116 / 117 40% 1 19.11.2026 -
Camilo Durán Bloemfontein Celtic Ativo 108 / 130 40% 2 18.11.2026 -
Alexei Dominguez Pachuca Ativo 129 / 106 40% 1 18.11.2026 -
Thyago Ayala Sarmiento Ativo 91 / 97 40% 6 16.11.2026 -
Kasper Høgh Bloemfontein Celtic Ativo 133 / 121 40% 2 16.11.2026 -
Joaquín Panichelli RC Strasbourg Ativo 161 / 127 40% 3 16.11.2026 -
Luiz Júnior Villarreal Ativo 128 / 145 40% 5 12.11.2026 -
Svetoslav Vutsov Levski Ativo 125 / 133 40% 1 11.11.2026 -
Viktor Johansson Stoke City Ativo 139 / 115 40% 2 08.11.2026 -
Emanuel Sittaro Instituto Ativo 107 / 90 40% 1 07.11.2026 -
Hugo Gallardo Veracruz Ativo 80 / 95 40% 2 06.11.2026 -
Lukas Gütlbauer Wolfsberger AC Ativo 120 / 129 40% 2 05.11.2026 -
Rustam Yatimov Rostov Ativo 129 / 110 40% 1 05.11.2026 -
Santiago Torres San Lorenzo Ativo 107 / 103 40% 4 04.11.2026 -
Nicolás Nocetti Defensores Ativo 109 / 116 40% 5 03.11.2026 -
Albert Posiadała Molde Ativo 118 / 133 40% 1 03.11.2026 -
Luke Southwood Bristol Rovers Ativo 82 / 94 40% 3 02.11.2026 -
Lukáš Horníček Newcastle United Ativo 156 / 155 40% 4 01.11.2026 -
Iker Álvarez Córdoba Ativo 108 / 114 40% 1 01.11.2026 -
Damián Fernández Rosario Central Ativo 86 / 108 40% 1 29.10.2026 -
Sipho Chaine Orlando Pirates Ativo 95 / 123 40% 1 28.10.2026 -
Lucas Bruera Carabobo Ativo 130 / 107 40% 2 26.10.2026 -
Luis López Eibar Ativo 104 / 89 40% 4 25.10.2026 -
Rodrigo Bogarín Hapoel Beer Sheva Ativo 114 / 101 40% 3 25.10.2026 -
Gonzalo Plata Dinamo Moscow Ativo 142 / 130 40% 2 23.10.2026 -
Daniel Gyan WAFA Ativo 130 / 119 40% 1 23.10.2026 -
Veljko Birmančević Ferencvaros Ativo 131 / 148 40% 2 21.10.2026 -
Arthur Beroe Ativo 131 / 131 40% 1 20.10.2026 -
Liel Abada Charlotte Football Club Ativo 134 / 132 40% 1 19.10.2026 -
Victor Aznar Cádiz Ativo 102 / 118 40% 2 14.10.2026 -
Mathías Bernatene Liverpool Montevideo Ativo 92 / 88 40% 4 13.10.2026 -
Francisco Vergara Gimnasia La Plata Ativo 83 / 89 40% 1 11.10.2026 -
Percy Mphela Ajax Cape Town Ativo 87 / 104 40% 1 11.10.2026 -
Oscar Ferraresi Llaneros Ativo 116 / 119 40% 3 10.10.2026 -
Oscar Osorio Atletico Venezuela Ativo 103 / 108 40% 2 09.10.2026 -
Marcos Camarda Santiago Wanderers Ativo 102 / 113 40% 1 09.10.2026 -
Sandi Elsnik NK Domzale Ativo 103 / 119 40% 1 08.10.2026 -
Aitor Fraga Real Sociedad Ativo 110 / 123 40% 3 05.10.2026 -
Roberto de la Rosa Monterrey Ativo 102 / 127 40% 2 04.10.2026 -
Sifiso Mothiba Platinum Stars Ativo 117 / 121 40% 1 04.10.2026 -
Stephen Odey Ittihad Ativo 91 / 97 40% 1 03.10.2026 -
Chuchu Ramírez Nacional Ativo 126 / 141 40% 1 30.09.2026 -
Luciano Gondou CSKA Moscow Ativo 143 / 123 40% 2 29.09.2026 -
Daniel Karlsbakk Sarpsborg 08 Ativo 147 / 132 40% 1 29.09.2026 -
Moisés Gallo Caracas Ativo 95 / 102 40% 4 26.09.2026 -
Egoitz Arana Real Sociedad Ativo 86 / 99 40% 2 24.09.2026 -
Alassana Jatta Notts County Ativo 109 / 89 40% 1 22.09.2026 -
Dominik Takáč Slovan Bratislava Ativo 128 / 135 40% 2 20.09.2026 -
Franco Carretero Deportivo Lara Ativo 93 / 91 40% 2 16.09.2026 -
Fernando Rodriguez Boca Juniors Ativo 99 / 111 40% 1 16.09.2026 -
Edarlyn Reyes Arsenal Tula Ativo 89 / 88 40% 1 16.09.2026 -
Marcos Cuenca Zaragoza Ativo 129 / 105 40% 1 16.09.2026 -
Adalberto Peñaranda Deportivo Tachira Ativo 122 / 117 40% 1 15.09.2026 -
Ani Ozoemena Rivers United Ativo 75 / 106 40% 1 13.09.2026 -
Freddie Woodman Liverpool Ativo 100 / 121 40% 2 12.09.2026 -
Justin-Noël Kalumba Mallorca Ativo 122 / 113 40% 1 11.09.2026 -
Erik Botheim Viking Ativo 108 / 122 40% 1 08.09.2026 -
César Magallan Estudiantes de Merida Ativo 94 / 99 40% 1 08.09.2026 -
Thiago Villalba Vélez Ativo 104 / 109 40% 1 08.09.2026 -
Armstrong Oko-Flex Levski Ativo 95 / 127 40% 1 05.09.2026 -
Diego Enríquez Sporting Cristal Ativo 111 / 124 40% 1 04.09.2026 -
Kermit Erasmus Platinum Stars Ativo 116 / 114 40% 2 03.09.2026 -
Evgeny Staver Rubin Ativo 115 / 128 40% 1 03.09.2026 -
Samuel Obeng Albacete Ativo 128 / 98 40% 1 01.09.2026 -
Eric Ramírez Carabobo Ativo 97 / 120 40% 2 31.08.2026 -
Jorge Cabezudo Melgar Perdido 101 / 113 40% 2 31.08.2026 -
José Balza Deportivo Tachira Ativo 96 / 111 40% 1 31.08.2026 -
George Marks Philadelphia Union Ativo 92 / 83 40% 1 30.08.2026 -
Oscar Hedvall Valerenga Ativo 128 / 102 40% 1 26.08.2026 -
Francisco Galván Deportivo Municipal Ativo 119 / 121 40% 1 25.08.2026 -
Adolfo Muñoz UTC Ativo 98 / 115 40% 1 25.08.2026 -
Enzo Larrosa Independiente Medellin Ativo 114 / 101 40% 1 19.08.2026 -
Cristian Núñez Huracán Ativo 109 / 125 40% 1 19.08.2026 -
Bojan Radulović Huddersfield Town Ativo 120 / 131 40% 1 18.08.2026 -
Genaro Rossi San Martín SJ Ativo 101 / 108 40% 1 18.08.2026 -
Luis Ramos Alianza Lima Ativo 111 / 104 40% 1 16.08.2026 -
David Agudelo Depor Ativo 84 / 87 40% 2 08.08.2026 -
Evidence Billiat Ajax Cape Town Ativo 88 / 123 40% 1 08.08.2026 -